sensor_id;sensor_type;location;lat;lon;timestamp;pressure;altitude;pressure_sealevel;temperature;humidity
31299;BME280;17927;52.350;13.402;2023-01-31T00:02:16;100954.41;;;7.97;53.38
31299;BME280;17927;52.350;13.402;2023-01-31T00:04:41;100945.59;;;7.95;53.21
31299;BME280;17927;52.350;13.402;2023-01-31T00:07:06;100951.94;;;7.93;53.33
31299;BME280;17927;52.350;13.402;2023-01-31T00:09:31;100946.69;;;7.92;53.20
31299;BME280;17927;52.350;13.402;2023-01-31T00:11:57;100955.75;;;7.91;53.16
31299;BME280;17927;52.350;13.402;2023-01-31T00:14:22;100964.78;;;7.90;53.31
31299;BME280;17927;52.350;13.402;2023-01-31T00:16:49;100970.16;;;7.90;53.41
31299;BME280;17927;52.350;13.402;2023-01-31T00:19:14;100954.13;;;7.88;52.98
31299;BME280;17927;52.350;13.402;2023-01-31T00:21:39;100977.50;;;7.88;53.12
31299;BME280;17927;52.350;13.402;2023-01-31T00:24:07;100978.47;;;7.87;53.16
31299;BME280;17927;52.350;13.402;2023-01-31T00:26:34;100981.28;;;7.85;53.12
31299;BME280;17927;52.350;13.402;2023-01-31T00:29:01;100977.72;;;7.85;53.04
31299;BME280;17927;52.350;13.402;2023-01-31T00:31:28;100993.03;;;7.84;53.11
31299;BME280;17927;52.350;13.402;2023-01-31T00:33:54;100978.69;;;7.84;53.24
31299;BME280;17927;52.350;13.402;2023-01-31T00:36:22;100988.63;;;7.83;53.19
31299;BME280;17927;52.350;13.402;2023-01-31T00:38:50;100990.56;;;7.81;53.10
31299;BME280;17927;52.350;13.402;2023-01-31T00:41:17;100993.34;;;7.80;53.53
31299;BME280;17927;52.350;13.402;2023-01-31T00:43:42;100993.25;;;7.81;53.22
31299;BME280;17927;52.350;13.402;2023-01-31T00:46:08;101003.03;;;7.82;53.65
31299;BME280;17927;52.350;13.402;2023-01-31T00:48:33;100996.78;;;7.82;53.48
31299;BME280;17927;52.350;13.402;2023-01-31T00:50:58;100998.50;;;7.83;53.68
31299;BME280;17927;52.350;13.402;2023-01-31T00:53:24;101010.13;;;7.83;53.78
31299;BME280;17927;52.350;13.402;2023-01-31T00:55:50;101018.06;;;7.85;53.51
31299;BME280;17927;52.350;13.402;2023-01-31T00:58:16;101013.56;;;7.85;53.88
31299;BME280;17927;52.350;13.402;2023-01-31T01:00:42;101018.94;;;7.85;53.60
31299;BME280;17927;52.350;13.402;2023-01-31T01:03:08;101021.72;;;7.84;53.77
31299;BME280;17927;52.350;13.402;2023-01-31T01:05:33;101026.13;;;7.85;53.82
31299;BME280;17927;52.350;13.402;2023-01-31T01:07:58;101029.81;;;7.84;53.92
31299;BME280;17927;52.350;13.402;2023-01-31T01:10:23;101041.31;;;7.86;53.63
31299;BME280;17927;52.350;13.402;2023-01-31T01:12:49;101039.47;;;7.86;53.78
31299;BME280;17927;52.350;13.402;2023-01-31T01:15:14;101034.81;;;7.88;54.10
31299;BME280;17927;52.350;13.402;2023-01-31T01:17:39;101039.13;;;7.91;54.02
31299;BME280;17927;52.350;13.402;2023-01-31T01:20:05;101052.44;;;7.92;53.97
31299;BME280;17927;52.350;13.402;2023-01-31T01:22:32;101045.13;;;7.95;53.84
31299;BME280;17927;52.350;13.402;2023-01-31T01:24:57;101053.94;;;7.97;53.65
31299;BME280;17927;52.350;13.402;2023-01-31T01:27:22;101058.22;;;7.99;53.97
31299;BME280;17927;52.350;13.402;2023-01-31T01:29:48;101051.84;;;8.00;53.98
31299;BME280;17927;52.350;13.402;2023-01-31T01:32:13;101063.22;;;8.04;53.95
31299;BME280;17927;52.350;13.402;2023-01-31T01:34:38;101054.94;;;8.07;54.18
31299;BME280;17927;52.350;13.402;2023-01-31T01:37:06;101046.75;;;8.08;53.71
31299;BME280;17927;52.350;13.402;2023-01-31T01:39:47;101053.94;;;8.08;53.78
31299;BME280;17927;52.350;13.402;2023-01-31T01:42:14;101066.31;;;8.11;53.93
31299;BME280;17927;52.350;13.402;2023-01-31T01:47:21;101065.47;;;8.10;53.90
31299;BME280;17927;52.350;13.402;2023-01-31T01:49:52;101081.72;;;8.08;53.82
31299;BME280;17927;52.350;13.402;2023-01-31T01:52:20;101078.78;;;8.12;53.82
31299;BME280;17927;52.350;13.402;2023-01-31T01:54:54;101091.16;;;8.14;53.50
31299;BME280;17927;52.350;13.402;2023-01-31T01:57:23;101106.19;;;8.17;53.90
31299;BME280;17927;52.350;13.402;2023-01-31T02:00:06;101110.38;;;8.21;54.00
31299;BME280;17927;52.350;13.402;2023-01-31T02:02:33;101108.53;;;8.21;53.75
31299;BME280;17927;52.350;13.402;2023-01-31T02:04:59;101104.75;;;8.24;54.00
31299;BME280;17927;52.350;13.402;2023-01-31T02:07:25;101109.16;;;8.25;53.63
31299;BME280;17927;52.350;13.402;2023-01-31T02:10:04;101104.50;;;8.27;53.68
31299;BME280;17927;52.350;13.402;2023-01-31T02:12:31;101104.13;;;8.20;53.90
31299;BME280;17927;52.350;13.402;2023-01-31T02:14:58;101111.97;;;8.23;53.75
31299;BME280;17927;52.350;13.402;2023-01-31T02:17:23;101108.91;;;8.28;53.93
31299;BME280;17927;52.350;13.402;2023-01-31T02:28:06;101117.25;;;8.36;53.69
31299;BME280;17927;52.350;13.402;2023-01-31T02:33:49;101127.06;;;8.37;53.61
31299;BME280;17927;52.350;13.402;2023-01-31T02:36:28;101135.13;;;8.37;53.45
31299;BME280;17927;52.350;13.402;2023-01-31T02:41:42;101135.13;;;8.37;53.18
31299;BME280;17927;52.350;13.402;2023-01-31T02:47:30;101136.09;;;8.36;53.43
31299;BME280;17927;52.350;13.402;2023-01-31T02:50:19;101136.34;;;8.33;53.22
31299;BME280;17927;52.350;13.402;2023-01-31T02:52:56;101132.28;;;8.28;53.45
31299;BME280;17927;52.350;13.402;2023-01-31T02:55:43;101142.31;;;8.26;53.30
31299;BME280;17927;52.350;13.402;2023-01-31T02:58:35;101146.44;;;8.18;53.40
31299;BME280;17927;52.350;13.402;2023-01-31T03:01:02;101148.41;;;8.16;53.16
31299;BME280;17927;52.350;13.402;2023-01-31T03:03:31;101147.66;;;8.14;53.20
31299;BME280;17927;52.350;13.402;2023-01-31T03:06:45;101155.00;;;8.12;53.43
31299;BME280;17927;52.350;13.402;2023-01-31T03:09:05;101143.84;;;8.05;53.39
31299;BME280;17927;52.350;13.402;2023-01-31T03:12:11;101147.63;;;8.03;53.23
31299;BME280;17927;52.350;13.402;2023-01-31T03:20:38;101158.56;;;7.88;53.11
31299;BME280;17927;52.350;13.402;2023-01-31T03:23:12;101172.38;;;7.84;53.42
31299;BME280;17927;52.350;13.402;2023-01-31T03:25:39;101169.81;;;7.82;53.23
31299;BME280;17927;52.350;13.402;2023-01-31T03:28:10;101171.97;;;7.77;53.53
31299;BME280;17927;52.350;13.402;2023-01-31T03:30:47;101162.31;;;7.74;53.44
31299;BME280;17927;52.350;13.402;2023-01-31T03:33:22;101173.28;;;7.71;53.37
31299;BME280;17927;52.350;13.402;2023-01-31T03:35:55;101168.13;;;7.68;53.41
31299;BME280;17927;52.350;13.402;2023-01-31T03:38:25;101184.47;;;7.65;53.63
31299;BME280;17927;52.350;13.402;2023-01-31T03:41:07;101191.81;;;7.63;53.46
31299;BME280;17927;52.350;13.402;2023-01-31T03:46:22;101198.75;;;7.54;53.32
31299;BME280;17927;52.350;13.402;2023-01-31T03:48:51;101184.56;;;7.52;53.93
31299;BME280;17927;52.350;13.402;2023-01-31T03:51:21;101200.78;;;7.51;53.43
31299;BME280;17927;52.350;13.402;2023-01-31T03:53:53;101207.13;;;7.50;53.94
31299;BME280;17927;52.350;13.402;2023-01-31T03:56:26;101198.44;;;7.46;53.95
31299;BME280;17927;52.350;13.402;2023-01-31T03:58:57;101204.78;;;7.45;53.77
31299;BME280;17927;52.350;13.402;2023-01-31T04:01:25;101207.69;;;7.42;53.95
31299;BME280;17927;52.350;13.402;2023-01-31T04:04:05;101202.44;;;7.40;53.99
31299;BME280;17927;52.350;13.402;2023-01-31T04:06:32;101211.59;;;7.38;53.97
31299;BME280;17927;52.350;13.402;2023-01-31T04:08:57;101214.28;;;7.38;53.81
31299;BME280;17927;52.350;13.402;2023-01-31T04:11:24;101214.34;;;7.36;53.96
31299;BME280;17927;52.350;13.402;2023-01-31T04:13:49;101222.56;;;7.35;53.92
31299;BME280;17927;52.350;13.402;2023-01-31T04:16:15;101229.84;;;7.32;53.96
31299;BME280;17927;52.350;13.402;2023-01-31T04:18:40;101231.66;;;7.32;54.25
31299;BME280;17927;52.350;13.402;2023-01-31T04:21:05;101229.97;;;7.31;54.03
31299;BME280;17927;52.350;13.402;2023-01-31T04:23:31;101217.50;;;7.30;54.34
31299;BME280;17927;52.350;13.402;2023-01-31T04:25:56;101220.28;;;7.28;54.18
31299;BME280;17927;52.350;13.402;2023-01-31T04:28:21;101225.66;;;7.28;54.24
31299;BME280;17927;52.350;13.402;2023-01-31T04:30:54;101223.09;;;7.27;54.22
31299;BME280;17927;52.350;13.402;2023-01-31T04:33:20;101220.50;;;7.25;54.33
31299;BME280;17927;52.350;13.402;2023-01-31T04:35:45;101219.88;;;7.22;54.43
31299;BME280;17927;52.350;13.402;2023-01-31T04:38:11;101217.19;;;7.22;54.59
31299;BME280;17927;52.350;13.402;2023-01-31T04:40:36;101232.47;;;7.21;54.58
31299;BME280;17927;52.350;13.402;2023-01-31T04:43:01;101219.88;;;7.22;54.72
31299;BME280;17927;52.350;13.402;2023-01-31T04:45:26;101230.63;;;7.22;54.68
31299;BME280;17927;52.350;13.402;2023-01-31T04:47:52;101230.63;;;7.22;54.79
31299;BME280;17927;52.350;13.402;2023-01-31T04:50:17;101236.97;;;7.21;54.74
31299;BME280;17927;52.350;13.402;2023-01-31T04:52:42;101232.47;;;7.21;54.83
31299;BME280;17927;52.350;13.402;2023-01-31T04:55:08;101236.00;;;7.22;55.02
31299;BME280;17927;52.350;13.402;2023-01-31T04:57:33;101224.28;;;7.23;55.08
31299;BME280;17927;52.350;13.402;2023-01-31T04:59:58;101242.97;;;7.24;55.13
31299;BME280;17927;52.350;13.402;2023-01-31T05:02:24;101250.94;;;7.26;54.93
31299;BME280;17927;52.350;13.402;2023-01-31T05:04:49;101249.97;;;7.27;55.33
31299;BME280;17927;52.350;13.402;2023-01-31T05:07:15;101251.56;;;7.29;55.42
31299;BME280;17927;52.350;13.402;2023-01-31T05:09:40;101258.56;;;7.32;55.30
31299;BME280;17927;52.350;13.402;2023-01-31T05:12:07;101265.56;;;7.35;55.54
31299;BME280;17927;52.350;13.402;2023-01-31T05:14:32;101262.66;;;7.38;55.52
31299;BME280;17927;52.350;13.402;2023-01-31T05:16:58;101254.34;;;7.41;55.56
31299;BME280;17927;52.350;13.402;2023-01-31T05:19:23;101247.03;;;7.43;55.73
31299;BME280;17927;52.350;13.402;2023-01-31T05:21:48;101245.22;;;7.43;55.71
31299;BME280;17927;52.350;13.402;2023-01-31T05:24:21;101259.63;;;7.42;55.71
31299;BME280;17927;52.350;13.402;2023-01-31T05:26:46;101276.38;;;7.46;55.67
31299;BME280;17927;52.350;13.402;2023-01-31T05:29:12;101267.22;;;7.49;55.85
31299;BME280;17927;52.350;13.402;2023-01-31T05:31:37;101269.63;;;7.53;55.63
31299;BME280;17927;52.350;13.402;2023-01-31T05:34:02;101263.28;;;7.54;55.60
31299;BME280;17927;52.350;13.402;2023-01-31T05:36:27;101264.88;;;7.57;55.77
31299;BME280;17927;52.350;13.402;2023-01-31T05:38:53;101267.00;;;7.65;55.99
31299;BME280;17927;52.350;13.402;2023-01-31T05:41:18;101264.72;;;7.71;56.16
31299;BME280;17927;52.350;13.402;2023-01-31T05:43:43;101257.91;;;7.78;55.96
31299;BME280;17927;52.350;13.402;2023-01-31T05:46:08;101269.19;;;7.84;55.90
31299;BME280;17927;52.350;13.402;2023-01-31T05:48:34;101271.53;;;7.88;55.98
31299;BME280;17927;52.350;13.402;2023-01-31T05:50:59;101273.19;;;7.91;55.87
31299;BME280;17927;52.350;13.402;2023-01-31T05:53:24;101270.97;;;7.96;55.98
31299;BME280;17927;52.350;13.402;2023-01-31T05:55:49;101265.50;;;7.98;56.01
31299;BME280;17927;52.350;13.402;2023-01-31T05:58:15;101261.63;;;8.02;55.85
31299;BME280;17927;52.350;13.402;2023-01-31T06:00:40;101273.84;;;8.06;55.64
31299;BME280;17927;52.350;13.402;2023-01-31T06:03:05;101275.56;;;8.07;55.63
31299;BME280;17927;52.350;13.402;2023-01-31T06:05:30;101280.88;;;8.08;55.56
31299;BME280;17927;52.350;13.402;2023-01-31T06:07:56;101286.00;;;8.12;55.50
31299;BME280;17927;52.350;13.402;2023-01-31T06:10:21;101279.63;;;8.13;55.42
31299;BME280;17927;52.350;13.402;2023-01-31T06:12:47;101282.22;;;8.14;55.41
31299;BME280;17927;52.350;13.402;2023-01-31T06:15:12;101283.06;;;8.15;55.43
31299;BME280;17927;52.350;13.402;2023-01-31T06:17:37;101284.94;;;8.14;55.40
31299;BME280;17927;52.350;13.402;2023-01-31T06:20:03;101296.53;;;8.15;55.88
31299;BME280;17927;52.350;13.402;2023-01-31T06:22:28;101293.00;;;8.14;55.80
31299;BME280;17927;52.350;13.402;2023-01-31T06:24:54;101295.69;;;8.14;55.63
31299;BME280;17927;52.350;13.402;2023-01-31T06:27:19;101298.38;;;8.14;55.81
31299;BME280;17927;52.350;13.402;2023-01-31T06:29:44;101295.69;;;8.14;55.66
31299;BME280;17927;52.350;13.402;2023-01-31T06:32:09;101295.69;;;8.14;55.88
31299;BME280;17927;52.350;13.402;2023-01-31T06:34:35;101295.56;;;8.16;55.59
31299;BME280;17927;52.350;13.402;2023-01-31T06:37:00;101301.69;;;8.18;55.71
31299;BME280;17927;52.350;13.402;2023-01-31T06:39:25;101301.69;;;8.18;55.75
31299;BME280;17927;52.350;13.402;2023-01-31T06:41:51;101301.56;;;8.19;55.88
31299;BME280;17927;52.350;13.402;2023-01-31T06:44:16;101311.38;;;8.20;55.71
31299;BME280;17927;52.350;13.402;2023-01-31T06:46:41;101296.94;;;8.21;55.94
31299;BME280;17927;52.350;13.402;2023-01-31T06:49:06;101305.00;;;8.21;55.84
31299;BME280;17927;52.350;13.402;2023-01-31T06:51:31;101302.22;;;8.23;56.12
31299;BME280;17927;52.350;13.402;2023-01-31T06:53:57;101307.59;;;8.23;56.23
31299;BME280;17927;52.350;13.402;2023-01-31T06:56:22;101305.66;;;8.25;55.92
31299;BME280;17927;52.350;13.402;2023-01-31T06:58:47;101304.56;;;8.28;56.25
31299;BME280;17927;52.350;13.402;2023-01-31T07:01:13;101313.38;;;8.30;56.19
31299;BME280;17927;52.350;13.402;2023-01-31T07:03:39;101309.72;;;8.31;56.11
31299;BME280;17927;52.350;13.402;2023-01-31T07:06:06;101299.81;;;8.31;55.96
31299;BME280;17927;52.350;13.402;2023-01-31T07:08:32;101303.38;;;8.32;55.93
31299;BME280;17927;52.350;13.402;2023-01-31T07:10:58;101322.22;;;8.32;56.28
31299;BME280;17927;52.350;13.402;2023-01-31T07:13:25;101316.84;;;8.32;56.14
31299;BME280;17927;52.350;13.402;2023-01-31T07:15:51;101325.00;;;8.30;56.38
31299;BME280;17927;52.350;13.402;2023-01-31T07:18:16;101322.44;;;8.29;56.37
31299;BME280;17927;52.350;13.402;2023-01-31T07:20:41;101321.47;;;8.30;56.26
31299;BME280;17927;52.350;13.402;2023-01-31T07:23:07;101316.94;;;8.30;56.51
31299;BME280;17927;52.350;13.402;2023-01-31T07:25:33;101307.03;;;8.31;56.72
31299;BME280;17927;52.350;13.402;2023-01-31T07:27:59;101294.31;;;8.33;56.47
31299;BME280;17927;52.350;13.402;2023-01-31T07:30:25;101290.75;;;8.32;56.40
31299;BME280;17927;52.350;13.402;2023-01-31T07:32:50;101293.31;;;8.34;56.82
31299;BME280;17927;52.350;13.402;2023-01-31T07:35:16;101300.69;;;8.32;56.71
31299;BME280;17927;52.350;13.402;2023-01-31T07:37:41;101297.25;;;8.30;56.89
31299;BME280;17927;52.350;13.402;2023-01-31T07:40:09;101295.50;;;8.29;56.95
31299;BME280;17927;52.350;13.402;2023-01-31T07:42:34;101305.41;;;8.28;56.96
31299;BME280;17927;52.350;13.402;2023-01-31T07:44:59;101293.06;;;8.26;57.07
31299;BME280;17927;52.350;13.402;2023-01-31T07:47:25;101306.63;;;8.24;56.94
31299;BME280;17927;52.350;13.402;2023-01-31T07:49:50;101295.00;;;8.23;57.07
31299;BME280;17927;52.350;13.402;2023-01-31T07:52:15;101293.19;;;8.24;57.45
31299;BME280;17927;52.350;13.402;2023-01-31T07:54:40;101292.31;;;8.23;57.15
31299;BME280;17927;52.350;13.402;2023-01-31T07:57:06;101302.22;;;8.23;57.40
31299;BME280;17927;52.350;13.402;2023-01-31T07:59:31;101302.09;;;8.25;57.42
31299;BME280;17927;52.350;13.402;2023-01-31T08:01:56;101305.53;;;8.27;57.32
31299;BME280;17927;52.350;13.402;2023-01-31T08:04:40;101294.63;;;8.28;57.29
31299;BME280;17927;52.350;13.402;2023-01-31T08:07:05;101300.03;;;8.28;57.86
31299;BME280;17927;52.350;13.402;2023-01-31T08:09:31;101291.84;;;8.30;57.79
31299;BME280;17927;52.350;13.402;2023-01-31T08:11:56;101306.16;;;8.30;57.82
31299;BME280;17927;52.350;13.402;2023-01-31T08:14:22;101305.19;;;8.31;57.49
31299;BME280;17927;52.350;13.402;2023-01-31T08:16:50;101300.56;;;8.33;57.89
31299;BME280;17927;52.350;13.402;2023-01-31T08:19:15;101297.84;;;8.33;57.86
31299;BME280;17927;52.350;13.402;2023-01-31T08:21:40;101295.91;;;8.35;58.00
31299;BME280;17927;52.350;13.402;2023-01-31T08:24:06;101288.69;;;8.36;58.02
31299;BME280;17927;52.350;13.402;2023-01-31T08:26:31;101287.72;;;8.37;58.33
31299;BME280;17927;52.350;13.402;2023-01-31T08:28:56;101289.56;;;8.36;58.29
31299;BME280;17927;52.350;13.402;2023-01-31T08:31:25;101298.47;;;8.37;58.39
31299;BME280;17927;52.350;13.402;2023-01-31T08:33:50;101294.94;;;8.36;58.49
31299;BME280;17927;52.350;13.402;2023-01-31T08:36:24;101289.44;;;8.38;58.72
31299;BME280;17927;52.350;13.402;2023-01-31T08:38:49;101293.84;;;8.39;58.73
31299;BME280;17927;52.350;13.402;2023-01-31T08:41:16;101295.44;;;8.42;58.83
31299;BME280;17927;52.350;13.402;2023-01-31T08:43:42;101291.78;;;8.43;58.50
31299;BME280;17927;52.350;13.402;2023-01-31T08:46:07;101289.81;;;8.45;58.71
31299;BME280;17927;52.350;13.402;2023-01-31T08:48:34;101282.63;;;8.45;58.70
31299;BME280;17927;52.350;13.402;2023-01-31T08:51:03;101284.44;;;8.45;58.78
31299;BME280;17927;52.350;13.402;2023-01-31T08:53:29;101284.34;;;8.46;59.11
31299;BME280;17927;52.350;13.402;2023-01-31T08:56:02;101281.66;;;8.46;58.98
31299;BME280;17927;52.350;13.402;2023-01-31T08:58:30;101276.25;;;8.46;59.07
31299;BME280;17927;52.350;13.402;2023-01-31T09:01:05;101271.72;;;8.47;58.99
31299;BME280;17927;52.350;13.402;2023-01-31T09:03:31;101260.09;;;8.46;58.89
31299;BME280;17927;52.350;13.402;2023-01-31T09:05:58;101262.56;;;8.49;59.11
31299;BME280;17927;52.350;13.402;2023-01-31T09:08:24;101263.44;;;8.50;58.95
31299;BME280;17927;52.350;13.402;2023-01-31T09:10:50;101244.47;;;8.51;59.06
31299;BME280;17927;52.350;13.402;2023-01-31T09:13:16;101257.72;;;8.55;59.05
31299;BME280;17927;52.350;13.402;2023-01-31T09:15:41;101261.28;;;8.55;58.99
31299;BME280;17927;52.350;13.402;2023-01-31T09:18:07;101248.53;;;8.57;58.82
31299;BME280;17927;52.350;13.402;2023-01-31T09:20:32;101239.47;;;8.58;58.72
31299;BME280;17927;52.350;13.402;2023-01-31T09:22:57;101238.50;;;8.59;58.75
31299;BME280;17927;52.350;13.402;2023-01-31T09:25:22;101243.78;;;8.61;58.78
31299;BME280;17927;52.350;13.402;2023-01-31T09:27:51;101234.59;;;8.63;58.86
31299;BME280;17927;52.350;13.402;2023-01-31T09:30:17;101239.13;;;8.63;58.97
31299;BME280;17927;52.350;13.402;2023-01-31T09:32:42;101235.47;;;8.64;58.84
31299;BME280;17927;52.350;13.402;2023-01-31T09:35:08;101233.50;;;8.66;58.73
31299;BME280;17927;52.350;13.402;2023-01-31T09:37:33;101232.41;;;8.68;58.69
31299;BME280;17927;52.350;13.402;2023-01-31T09:39:59;101230.56;;;8.69;58.86
31299;BME280;17927;52.350;13.402;2023-01-31T09:42:28;101231.31;;;8.71;58.79
31299;BME280;17927;52.350;13.402;2023-01-31T09:45:01;101230.19;;;8.74;58.68
31299;BME280;17927;52.350;13.402;2023-01-31T09:47:38;101227.41;;;8.75;58.64
31299;BME280;17927;52.350;13.402;2023-01-31T09:50:06;101222.75;;;8.77;58.28
31299;BME280;17927;52.350;13.402;2023-01-31T09:52:40;101215.28;;;8.81;58.63
31299;BME280;17927;52.350;13.402;2023-01-31T09:55:05;101211.50;;;8.83;58.72
31299;BME280;17927;52.350;13.402;2023-01-31T09:58:04;101202.19;;;8.88;58.30
31299;BME280;17927;52.350;13.402;2023-01-31T10:04:29;101203.91;;;8.89;58.26
31299;BME280;17927;52.350;13.402;2023-01-31T10:07:13;101202.94;;;8.90;58.25
31299;BME280;17927;52.350;13.402;2023-01-31T10:10:09;101197.41;;;8.91;58.29
31299;BME280;17927;52.350;13.402;2023-01-31T10:12:50;101189.22;;;8.93;58.61
31299;BME280;17927;52.350;13.402;2023-01-31T10:17:50;101190.44;;;8.89;58.45
31299;BME280;17927;52.350;13.402;2023-01-31T10:20:20;101181.88;;;8.95;58.42
31299;BME280;17927;52.350;13.402;2023-01-31T10:22:51;101174.16;;;9.02;58.32
31299;BME280;17927;52.350;13.402;2023-01-31T10:25:26;101162.88;;;9.08;58.06
31299;BME280;17927;52.350;13.402;2023-01-31T10:28:01;101165.19;;;9.12;57.81
31299;BME280;17927;52.350;13.402;2023-01-31T10:30:42;101164.94;;;9.16;57.95
31299;BME280;17927;52.350;13.402;2023-01-31T10:33:23;101158.47;;;9.18;58.01
31299;BME280;17927;52.350;13.402;2023-01-31T10:35:54;101162.00;;;9.19;57.48
31299;BME280;17927;52.350;13.402;2023-01-31T10:38:34;101154.78;;;9.19;57.65
31299;BME280;17927;52.350;13.402;2023-01-31T10:41:11;101151.38;;;9.17;57.83
31299;BME280;17927;52.350;13.402;2023-01-31T10:43:44;101139.72;;;9.17;58.38
31299;BME280;17927;52.350;13.402;2023-01-31T10:46:13;101142.41;;;9.17;58.28
31299;BME280;17927;52.350;13.402;2023-01-31T10:48:41;101140.59;;;9.17;58.30
31299;BME280;17927;52.350;13.402;2023-01-31T10:54:16;101139.72;;;9.17;58.41
31299;BME280;17927;52.350;13.402;2023-01-31T10:56:46;101130.66;;;9.18;58.78
31299;BME280;17927;52.350;13.402;2023-01-31T10:59:24;101130.25;;;9.22;58.86
31299;BME280;17927;52.350;13.402;2023-01-31T11:01:50;101134.44;;;9.26;58.63
31299;BME280;17927;52.350;13.402;2023-01-31T11:04:40;101120.81;;;9.28;58.25
31299;BME280;17927;52.350;13.402;2023-01-31T11:07:07;101118.25;;;9.26;58.52
31299;BME280;17927;52.350;13.402;2023-01-31T11:09:37;101110.91;;;9.28;58.19
31299;BME280;17927;52.350;13.402;2023-01-31T11:12:05;101100.97;;;9.29;58.52
31299;BME280;17927;52.350;13.402;2023-01-31T11:14:31;101086.50;;;9.30;58.20
31299;BME280;17927;52.350;13.402;2023-01-31T11:17:21;101098.03;;;9.32;58.08
31299;BME280;17927;52.350;13.402;2023-01-31T11:19:50;101077.56;;;9.29;58.34
31299;BME280;17927;52.350;13.402;2023-01-31T11:22:25;101086.50;;;9.30;58.17
31299;BME280;17927;52.350;13.402;2023-01-31T11:24:52;101073.16;;;9.28;57.89
31299;BME280;17927;52.350;13.402;2023-01-31T11:27:27;101066.06;;;9.27;57.93
31299;BME280;17927;52.350;13.402;2023-01-31T11:29:55;101043.03;;;9.23;57.87
31299;BME280;17927;52.350;13.402;2023-01-31T11:32:25;101036.53;;;9.26;57.87
31299;BME280;17927;52.350;13.402;2023-01-31T11:35:27;101041.94;;;9.26;57.98
31299;BME280;17927;52.350;13.402;2023-01-31T11:37:56;101029.78;;;9.20;58.15
31299;BME280;17927;52.350;13.402;2023-01-31T11:40:31;101030.78;;;9.19;58.54
31299;BME280;17927;52.350;13.402;2023-01-31T11:42:59;101022.69;;;9.19;58.51
31299;BME280;17927;52.350;13.402;2023-01-31T11:45:33;101020.88;;;9.20;58.75
31299;BME280;17927;52.350;13.402;2023-01-31T11:48:18;101019.16;;;9.19;58.40
31299;BME280;17927;52.350;13.402;2023-01-31T11:50:57;101010.59;;;9.13;58.30
31299;BME280;17927;52.350;13.402;2023-01-31T11:53:36;100995.28;;;9.14;58.34
31299;BME280;17927;52.350;13.402;2023-01-31T11:58:39;100973.59;;;9.16;58.24
31299;BME280;17927;52.350;13.402;2023-01-31T12:01:07;100973.47;;;9.17;58.04
31299;BME280;17927;52.350;13.402;2023-01-31T12:03:37;100961.81;;;9.17;58.27
31299;BME280;17927;52.350;13.402;2023-01-31T12:06:06;100950.94;;;9.18;58.04
31299;BME280;17927;52.350;13.402;2023-01-31T12:08:37;100932.91;;;9.19;58.07
31299;BME280;17927;52.350;13.402;2023-01-31T12:11:25;100925.66;;;9.19;58.03
31299;BME280;17927;52.350;13.402;2023-01-31T12:13:53;100924.66;;;9.20;58.10
31299;BME280;17927;52.350;13.402;2023-01-31T12:16:25;100920.88;;;9.23;58.11
31299;BME280;17927;52.350;13.402;2023-01-31T12:21:42;100905.69;;;9.22;58.26
31299;BME280;17927;52.350;13.402;2023-01-31T12:24:30;100903.00;;;9.22;58.68
31299;BME280;17927;52.350;13.402;2023-01-31T12:30:02;100900.69;;;9.17;59.30
31299;BME280;17927;52.350;13.402;2023-01-31T12:32:52;100894.69;;;9.13;59.52
31299;BME280;17927;52.350;13.402;2023-01-31T12:35:46;100888.56;;;9.11;59.40
31299;BME280;17927;52.350;13.402;2023-01-31T12:38:35;100867.28;;;9.08;59.62
31299;BME280;17927;52.350;13.402;2023-01-31T12:41:18;100878.31;;;9.05;59.91
31299;BME280;17927;52.350;13.402;2023-01-31T12:46:56;100876.13;;;8.99;60.72
31299;BME280;17927;52.350;13.402;2023-01-31T12:49:46;100860.22;;;8.96;60.58
31299;BME280;17927;52.350;13.402;2023-01-31T12:52:21;100850.72;;;8.92;61.02
31299;BME280;17927;52.350;13.402;2023-01-31T12:57:48;100856.75;;;8.84;61.20
31299;BME280;17927;52.350;13.402;2023-01-31T13:00:41;100850.75;;;8.80;61.43
31299;BME280;17927;52.350;13.402;2023-01-31T13:03:32;100853.97;;;8.74;61.70
31299;BME280;17927;52.350;13.402;2023-01-31T13:06:06;100832.09;;;8.67;61.64
31299;BME280;17927;52.350;13.402;2023-01-31T13:08:34;100821.56;;;8.64;62.26
31299;BME280;17927;52.350;13.402;2023-01-31T13:11:12;100826.38;;;8.61;62.25
31299;BME280;17927;52.350;13.402;2023-01-31T13:13:44;100824.91;;;8.57;62.43
31299;BME280;17927;52.350;13.402;2023-01-31T13:16:33;100818.91;;;8.53;62.67
31299;BME280;17927;52.350;13.402;2023-01-31T13:19:02;100827.41;;;8.48;62.63
31299;BME280;17927;52.350;13.402;2023-01-31T13:21:32;100812.19;;;8.47;63.24
31299;BME280;17927;52.350;13.402;2023-01-31T13:24:02;100826.75;;;8.45;63.20
31299;BME280;17927;52.350;13.402;2023-01-31T13:26:31;100827.84;;;8.42;63.51
31299;BME280;17927;52.350;13.402;2023-01-31T13:29:06;100805.72;;;8.38;63.65
31299;BME280;17927;52.350;13.402;2023-01-31T13:31:43;100801.44;;;8.36;63.60
31299;BME280;17927;52.350;13.402;2023-01-31T13:34:21;100810.50;;;8.35;64.04
31299;BME280;17927;52.350;13.402;2023-01-31T13:36:55;100815.16;;;8.33;64.16
31299;BME280;17927;52.350;13.402;2023-01-31T13:39:39;100816.16;;;8.32;64.40
31299;BME280;17927;52.350;13.402;2023-01-31T13:42:11;100800.97;;;8.31;64.73
31299;BME280;17927;52.350;13.402;2023-01-31T13:44:37;100796.56;;;8.30;64.98
31299;BME280;17927;52.350;13.402;2023-01-31T13:47:07;100796.56;;;8.30;65.02
31299;BME280;17927;52.350;13.402;2023-01-31T13:49:52;100789.34;;;8.30;65.32
31299;BME280;17927;52.350;13.402;2023-01-31T13:54:57;100808.06;;;8.32;65.18
31299;BME280;17927;52.350;13.402;2023-01-31T13:57:49;100807.09;;;8.33;65.38
31299;BME280;17927;52.350;13.402;2023-01-31T14:03:03;100785.81;;;8.30;65.34